createdAt,value
2023-01-31T00:01:33.097Z,54.95
2023-01-31T00:04:02.085Z,55.04
2023-01-31T00:06:34.293Z,55.18
2023-01-31T00:09:02.058Z,55.21
2023-01-31T00:11:30.126Z,55.32
2023-01-31T00:13:59.122Z,55.20
2023-01-31T00:16:26.358Z,55.19
2023-01-31T00:18:53.024Z,55.12
2023-01-31T00:21:25.787Z,55.10
2023-01-31T00:23:53.433Z,55.04
2023-01-31T00:26:32.049Z,55.25
2023-01-31T00:29:00.568Z,55.14
2023-01-31T00:31:29.384Z,55.21
2023-01-31T00:33:56.650Z,55.13
2023-01-31T00:36:25.323Z,55.18
2023-01-31T00:38:53.726Z,55.13
2023-01-31T00:41:22.455Z,55.16
2023-01-31T00:43:50.217Z,55.30
2023-01-31T00:46:17.623Z,55.09
2023-01-31T00:48:45.055Z,55.09
2023-01-31T00:51:11.734Z,55.22
2023-01-31T00:53:39.206Z,55.27
2023-01-31T00:56:16.701Z,55.18
2023-01-31T00:58:44.007Z,55.33
2023-01-31T01:01:14.047Z,55.20
2023-01-31T01:03:41.771Z,55.40
2023-01-31T01:06:09.541Z,55.39
2023-01-31T01:08:37.317Z,55.20
2023-01-31T01:11:13.635Z,55.52
2023-01-31T01:13:41.556Z,55.60
2023-01-31T01:16:13.816Z,55.59
2023-01-31T01:18:40.701Z,55.47
2023-01-31T01:21:11.478Z,55.57
2023-01-31T01:23:39.262Z,55.56
2023-01-31T01:26:06.872Z,55.59
2023-01-31T01:28:35.243Z,55.64
2023-01-31T01:31:09.259Z,55.70
2023-01-31T01:33:36.759Z,55.82
2023-01-31T01:36:08.663Z,55.80
2023-01-31T01:38:36.477Z,55.83
2023-01-31T01:41:05.009Z,55.72
2023-01-31T01:43:57.793Z,55.81
2023-01-31T01:46:31.709Z,55.84
2023-01-31T01:49:04.453Z,55.82
2023-01-31T01:51:34.012Z,55.84
2023-01-31T01:54:05.677Z,55.88
2023-01-31T01:56:39.230Z,55.88
2023-01-31T01:59:24.835Z,56.01
2023-01-31T02:01:52.513Z,55.85
2023-01-31T02:04:23.369Z,55.88
2023-01-31T02:06:50.263Z,55.95
2023-01-31T02:09:27.939Z,55.88
2023-01-31T02:11:54.572Z,55.82
2023-01-31T02:14:21.609Z,55.79
2023-01-31T02:16:48.465Z,55.81
2023-01-31T02:19:28.905Z,55.90
2023-01-31T02:22:10.924Z,55.83
2023-01-31T02:25:12.675Z,55.93
2023-01-31T02:28:04.280Z,55.95
2023-01-31T02:31:02.736Z,56.03
2023-01-31T02:33:59.090Z,56.03
2023-01-31T02:36:34.850Z,56.07
2023-01-31T02:39:15.100Z,56.16
2023-01-31T02:41:51.139Z,56.11
2023-01-31T02:44:50.743Z,56.12
2023-01-31T02:47:45.684Z,56.15
2023-01-31T02:50:14.865Z,56.18
2023-01-31T02:52:48.182Z,56.26
2023-01-31T02:55:48.739Z,56.19
2023-01-31T02:58:20.016Z,56.33
2023-01-31T03:00:49.452Z,56.42
2023-01-31T03:03:27.805Z,56.52
2023-01-31T03:06:23.059Z,56.53
2023-01-31T03:09:02.374Z,56.63
2023-01-31T03:11:36.350Z,56.67
2023-01-31T03:14:21.521Z,56.55
2023-01-31T03:17:25.719Z,56.77
2023-01-31T03:20:15.730Z,56.70
2023-01-31T03:22:48.538Z,56.73
2023-01-31T03:25:20.070Z,56.82
2023-01-31T03:27:54.227Z,57.12
2023-01-31T03:30:28.004Z,56.93
2023-01-31T03:33:00.686Z,57.02
2023-01-31T03:35:31.493Z,57.17
2023-01-31T03:38:06.072Z,57.24
2023-01-31T03:40:58.742Z,57.60
2023-01-31T03:43:33.272Z,57.42
2023-01-31T03:46:06.416Z,57.40
2023-01-31T03:48:38.238Z,57.24
2023-01-31T03:51:10.510Z,57.28
2023-01-31T03:53:47.642Z,57.54
2023-01-31T03:56:20.705Z,57.57
2023-01-31T03:58:52.217Z,57.78
2023-01-31T04:01:22.895Z,57.82
2023-01-31T04:03:58.705Z,57.80
2023-01-31T04:06:27.296Z,57.75
2023-01-31T04:08:54.791Z,58.08
2023-01-31T04:11:24.662Z,58.06
2023-01-31T04:13:51.360Z,58.10
2023-01-31T04:16:18.234Z,57.99
2023-01-31T04:18:44.858Z,58.24
2023-01-31T04:21:13.332Z,58.14
2023-01-31T04:23:39.820Z,58.23
2023-01-31T04:26:06.347Z,58.15
2023-01-31T04:28:33.177Z,58.15
2023-01-31T04:30:59.849Z,58.35
2023-01-31T04:33:26.458Z,58.33
2023-01-31T04:35:53.375Z,58.36
2023-01-31T04:38:19.984Z,58.33
2023-01-31T04:40:46.520Z,58.54
2023-01-31T04:43:13.930Z,58.33
2023-01-31T04:45:40.482Z,58.45
2023-01-31T04:48:07.778Z,58.45
2023-01-31T04:50:34.450Z,58.56
2023-01-31T04:53:01.033Z,58.58
2023-01-31T04:55:27.838Z,58.52
2023-01-31T04:57:54.506Z,58.48
2023-01-31T05:00:21.300Z,58.60
2023-01-31T05:02:47.883Z,58.57
2023-01-31T05:05:14.415Z,58.66
2023-01-31T05:07:41.015Z,58.64
2023-01-31T05:10:08.344Z,58.51
2023-01-31T05:12:34.869Z,58.59
2023-01-31T05:15:01.741Z,58.66
2023-01-31T05:17:30.012Z,58.46
2023-01-31T05:19:57.338Z,58.36
2023-01-31T05:22:24.474Z,58.63
2023-01-31T05:24:51.486Z,58.39
2023-01-31T05:27:19.305Z,58.47
2023-01-31T05:29:46.491Z,58.41
2023-01-31T05:32:14.495Z,58.63
2023-01-31T05:34:41.016Z,58.64
2023-01-31T05:37:07.650Z,58.67
2023-01-31T05:39:34.683Z,58.76
2023-01-31T05:42:01.921Z,58.93
2023-01-31T05:44:28.604Z,58.88
2023-01-31T05:46:55.233Z,58.97
2023-01-31T05:49:21.800Z,58.92
2023-01-31T05:51:48.264Z,58.83
2023-01-31T05:54:14.933Z,58.88
2023-01-31T05:56:41.519Z,59.07
2023-01-31T05:59:08.314Z,58.96
2023-01-31T06:01:34.899Z,58.99
2023-01-31T06:04:01.966Z,58.96
2023-01-31T06:06:28.630Z,59.24
2023-01-31T06:08:55.250Z,59.29
2023-01-31T06:11:21.913Z,59.37
2023-01-31T06:13:49.471Z,59.22
2023-01-31T06:16:16.200Z,59.35
2023-01-31T06:18:47.402Z,59.22
2023-01-31T06:21:13.999Z,59.13
2023-01-31T06:23:41.657Z,59.17
2023-01-31T06:26:08.215Z,59.28
2023-01-31T06:28:36.564Z,59.27
2023-01-31T06:31:10.298Z,59.23
2023-01-31T06:33:46.564Z,59.30
2023-01-31T06:36:17.430Z,59.27
2023-01-31T06:38:45.155Z,59.32
2023-01-31T06:41:12.877Z,59.24
2023-01-31T06:43:39.412Z,59.37
2023-01-31T06:46:05.931Z,59.27
2023-01-31T06:48:32.733Z,59.26
2023-01-31T06:50:59.343Z,59.32
2023-01-31T06:53:25.892Z,59.26
2023-01-31T06:55:52.473Z,59.32
2023-01-31T06:58:20.729Z,59.09
2023-01-31T07:00:47.876Z,59.09
2023-01-31T07:03:14.575Z,59.02
2023-01-31T07:05:41.162Z,59.01
2023-01-31T07:08:07.751Z,59.12
2023-01-31T07:10:34.320Z,58.98
2023-01-31T07:13:01.504Z,59.04
2023-01-31T07:15:28.131Z,59.11
2023-01-31T07:17:59.294Z,59.10
2023-01-31T07:20:26.627Z,59.17
2023-01-31T07:22:57.834Z,59.14
2023-01-31T07:25:25.406Z,59.21
2023-01-31T07:27:52.654Z,59.31
2023-01-31T07:30:19.551Z,59.28
2023-01-31T07:32:46.126Z,59.19
2023-01-31T07:35:12.707Z,59.14
2023-01-31T07:37:40.757Z,59.32
2023-01-31T07:40:08.100Z,59.49
2023-01-31T07:42:34.620Z,59.47
2023-01-31T07:45:13.079Z,59.47
2023-01-31T07:47:47.289Z,59.39
2023-01-31T07:50:13.832Z,59.46
2023-01-31T07:52:40.438Z,59.44
2023-01-31T07:55:07.560Z,59.44
2023-01-31T07:57:34.115Z,59.49
2023-01-31T08:00:01.227Z,59.64
2023-01-31T08:02:56.423Z,59.52
2023-01-31T08:05:23.393Z,59.68
2023-01-31T08:08:09.989Z,59.76
2023-01-31T08:10:36.826Z,59.55
2023-01-31T08:13:03.358Z,59.67
2023-01-31T08:15:30.426Z,59.79
2023-01-31T08:17:57.056Z,59.58
2023-01-31T08:20:23.845Z,59.63
2023-01-31T08:22:50.376Z,59.72
2023-01-31T08:25:19.545Z,59.73
2023-01-31T08:27:46.642Z,59.72
2023-01-31T08:30:13.802Z,59.73
2023-01-31T08:32:40.412Z,59.78
2023-01-31T08:35:07.583Z,59.78
2023-01-31T08:37:34.603Z,59.63
2023-01-31T08:40:01.129Z,59.68
2023-01-31T08:42:27.745Z,59.80
2023-01-31T08:44:55.012Z,59.65
2023-01-31T08:47:22.907Z,59.53
2023-01-31T08:49:49.501Z,59.77
2023-01-31T08:52:16.081Z,59.84
2023-01-31T08:54:42.693Z,59.70
2023-01-31T08:57:09.211Z,59.55
2023-01-31T08:59:36.255Z,59.64
2023-01-31T09:02:03.145Z,59.57
2023-01-31T09:04:30.124Z,59.42
2023-01-31T09:06:56.841Z,59.80
2023-01-31T09:09:25.970Z,59.75
2023-01-31T09:11:52.739Z,59.54
2023-01-31T09:14:19.300Z,59.47
2023-01-31T09:16:46.721Z,59.47
2023-01-31T09:19:13.342Z,59.51
2023-01-31T09:21:39.930Z,59.46
2023-01-31T09:24:06.798Z,59.34
2023-01-31T09:26:33.433Z,59.66
2023-01-31T09:29:01.731Z,59.33
2023-01-31T09:31:28.850Z,59.30
2023-01-31T09:33:55.615Z,59.49
2023-01-31T09:36:23.916Z,59.57
2023-01-31T09:38:55.656Z,59.71
2023-01-31T09:41:32.402Z,59.46
2023-01-31T09:44:06.800Z,59.41
2023-01-31T09:46:39.397Z,59.39
2023-01-31T09:49:16.311Z,59.47
2023-01-31T09:51:43.751Z,59.30
2023-01-31T09:54:34.376Z,59.33
2023-01-31T09:57:13.049Z,59.34
2023-01-31T09:59:42.530Z,59.30
2023-01-31T10:02:14.762Z,59.19
2023-01-31T10:05:05.440Z,59.27
2023-01-31T10:07:54.201Z,59.27
2023-01-31T10:10:33.878Z,59.09
2023-01-31T10:13:06.425Z,59.09
2023-01-31T10:15:43.040Z,58.99
2023-01-31T10:18:24.782Z,59.37
2023-01-31T10:20:57.155Z,59.28
2023-01-31T10:23:45.131Z,59.18
2023-01-31T10:26:23.767Z,58.73
2023-01-31T10:29:04.972Z,58.93
2023-01-31T10:31:45.163Z,58.85
2023-01-31T10:34:34.769Z,58.81
2023-01-31T10:37:05.506Z,59.05
2023-01-31T10:39:44.776Z,58.84
2023-01-31T10:42:26.492Z,58.79
2023-01-31T10:44:55.783Z,58.77
2023-01-31T10:47:36.508Z,58.34
2023-01-31T10:50:16.403Z,58.85
2023-01-31T10:52:43.019Z,58.70
2023-01-31T10:55:33.392Z,58.81
2023-01-31T10:58:00.325Z,58.64
2023-01-31T11:00:30.520Z,58.67
2023-01-31T11:02:58.473Z,58.82
2023-01-31T11:05:29.304Z,58.84
2023-01-31T11:07:58.629Z,58.73
2023-01-31T11:10:30.883Z,58.90
2023-01-31T11:13:07.349Z,58.82
2023-01-31T11:15:40.622Z,58.94
2023-01-31T11:18:08.185Z,59.10
2023-01-31T11:20:44.113Z,59.12
2023-01-31T11:23:15.226Z,58.93
2023-01-31T11:25:49.098Z,59.08
2023-01-31T11:28:40.689Z,58.86
2023-01-31T11:31:19.531Z,58.93
2023-01-31T11:33:57.524Z,58.71
2023-01-31T11:36:24.353Z,59.00
2023-01-31T11:38:51.366Z,58.91
2023-01-31T11:41:31.796Z,59.03
2023-01-31T11:44:16.004Z,58.79
2023-01-31T11:46:50.567Z,58.61
2023-01-31T11:49:28.192Z,59.03
2023-01-31T11:51:56.408Z,58.77
2023-01-31T11:54:30.208Z,58.89
2023-01-31T11:56:58.923Z,58.63
2023-01-31T11:59:29.020Z,58.77
2023-01-31T12:01:59.702Z,58.90
2023-01-31T12:04:34.923Z,58.90
2023-01-31T12:07:20.269Z,58.59
2023-01-31T12:09:46.894Z,58.63
2023-01-31T12:12:25.343Z,58.84
2023-01-31T12:14:56.229Z,58.71
2023-01-31T12:17:23.139Z,58.81
2023-01-31T12:19:49.557Z,58.60
2023-01-31T12:23:19.155Z,58.71
2023-01-31T12:26:01.653Z,58.91
2023-01-31T12:28:43.426Z,58.81
2023-01-31T12:31:34.620Z,58.64
2023-01-31T12:34:25.043Z,58.82
2023-01-31T12:37:09.819Z,58.75
2023-01-31T12:40:24.597Z,58.93
2023-01-31T12:43:01.334Z,59.02
2023-01-31T12:45:54.014Z,59.14
2023-01-31T12:48:37.863Z,59.19
2023-01-31T12:51:38.271Z,59.31
2023-01-31T12:54:13.923Z,59.47
2023-01-31T12:56:45.096Z,59.59
2023-01-31T12:59:33.637Z,59.52
2023-01-31T13:02:26.428Z,59.96
2023-01-31T13:04:59.864Z,59.88
2023-01-31T13:07:48.713Z,60.12
2023-01-31T13:10:35.559Z,60.18
2023-01-31T13:13:05.572Z,59.89
2023-01-31T13:15:51.919Z,60.00
2023-01-31T13:18:19.681Z,60.37
2023-01-31T13:20:51.306Z,60.30
2023-01-31T13:23:31.464Z,60.32
2023-01-31T13:26:22.108Z,60.50
2023-01-31T13:29:12.757Z,60.49
2023-01-31T13:31:58.636Z,60.63
2023-01-31T13:35:00.733Z,60.85
2023-01-31T13:37:31.113Z,61.02
2023-01-31T13:40:16.569Z,60.84
2023-01-31T13:42:43.200Z,61.20
2023-01-31T13:45:22.451Z,61.24
2023-01-31T13:48:03.458Z,61.26
2023-01-31T13:50:38.284Z,61.48
2023-01-31T13:53:12.634Z,61.25
2023-01-31T13:55:45.929Z,61.56
2023-01-31T13:58:22.486Z,61.61
2023-01-31T14:00:59.013Z,61.60
2023-01-31T14:03:26.481Z,61.46
2023-01-31T14:06:02.107Z,61.84
2023-01-31T14:08:37.548Z,61.88
2023-01-31T14:11:25.333Z,61.73
2023-01-31T14:14:17.753Z,61.84
2023-01-31T14:16:46.271Z,61.50
2023-01-31T14:19:19.023Z,61.80
2023-01-31T14:22:14.338Z,62.04
2023-01-31T14:24:46.619Z,62.04
2023-01-31T14:27:29.778Z,62.12
2023-01-31T14:30:05.758Z,62.34
2023-01-31T14:32:46.723Z,61.98
2023-01-31T14:35:13.159Z,62.28
2023-01-31T14:37:39.704Z,62.43
2023-01-31T14:40:21.139Z,62.47
2023-01-31T14:43:15.426Z,62.51
2023-01-31T14:46:19.404Z,62.53
2023-01-31T14:48:49.047Z,62.39
2023-01-31T14:51:47.268Z,62.22
2023-01-31T14:54:32.101Z,62.23
2023-01-31T14:57:22.109Z,62.12
2023-01-31T14:59:54.411Z,62.51
2023-01-31T15:02:32.584Z,62.50
2023-01-31T15:05:01.804Z,62.31
2023-01-31T15:07:28.843Z,62.13
2023-01-31T15:09:55.612Z,62.12
2023-01-31T15:12:53.261Z,62.18
2023-01-31T15:15:26.651Z,62.32
2023-01-31T15:17:54.882Z,62.38
2023-01-31T15:20:36.660Z,62.24
2023-01-31T15:23:05.955Z,62.25
2023-01-31T15:25:32.532Z,62.12
2023-01-31T15:28:01.091Z,61.99
2023-01-31T15:30:30.733Z,61.79
2023-01-31T15:33:18.337Z,61.63
2023-01-31T15:35:52.022Z,61.80
2023-01-31T15:38:28.512Z,61.88
2023-01-31T15:41:32.942Z,61.72
2023-01-31T15:44:21.189Z,61.81
2023-01-31T15:46:49.635Z,61.35
2023-01-31T15:49:38.061Z,61.69
2023-01-31T15:52:07.827Z,61.63
2023-01-31T15:54:35.026Z,61.41
2023-01-31T15:57:02.938Z,61.63
2023-01-31T15:59:32.331Z,61.52
2023-01-31T16:02:01.579Z,61.51
2023-01-31T16:04:29.046Z,61.48
2023-01-31T16:06:56.179Z,61.60
2023-01-31T16:09:30.686Z,61.73
2023-01-31T16:12:02.141Z,61.32
2023-01-31T16:14:29.378Z,61.35
2023-01-31T16:16:58.334Z,61.65
2023-01-31T16:19:33.593Z,61.61
2023-01-31T16:22:00.413Z,61.37
2023-01-31T16:24:27.304Z,61.18
2023-01-31T16:26:54.100Z,61.26
2023-01-31T16:29:22.673Z,61.41
2023-01-31T16:31:52.048Z,61.27
2023-01-31T16:34:31.101Z,61.12
2023-01-31T16:37:04.791Z,61.37
2023-01-31T16:39:41.950Z,61.28
2023-01-31T16:42:31.038Z,61.17
2023-01-31T16:44:57.863Z,61.22
2023-01-31T16:47:32.512Z,61.44
2023-01-31T16:50:17.075Z,61.21
2023-01-31T16:52:45.147Z,61.26
2023-01-31T16:55:17.922Z,61.21
2023-01-31T16:57:44.975Z,61.24
2023-01-31T17:00:23.640Z,61.46
2023-01-31T17:02:52.165Z,61.42
2023-01-31T17:05:37.612Z,61.57
2023-01-31T17:08:05.046Z,61.19
2023-01-31T17:10:35.139Z,61.03
2023-01-31T17:13:25.608Z,61.22
2023-01-31T17:15:52.573Z,60.71
2023-01-31T17:18:19.185Z,60.57
2023-01-31T17:20:51.157Z,60.66
2023-01-31T17:23:18.949Z,60.13
2023-01-31T17:25:46.253Z,60.15
2023-01-31T17:28:12.919Z,60.28
2023-01-31T17:30:42.840Z,60.26
2023-01-31T17:33:15.785Z,60.04
2023-01-31T17:35:46.671Z,60.00
2023-01-31T17:38:13.458Z,59.72
2023-01-31T17:40:41.587Z,59.75
2023-01-31T17:43:17.646Z,59.79
2023-01-31T17:45:45.931Z,59.55
2023-01-31T17:48:17.289Z,59.64
2023-01-31T17:50:53.173Z,59.72
2023-01-31T17:53:20.001Z,59.81
2023-01-31T17:55:46.604Z,59.68
2023-01-31T17:58:14.767Z,59.80
2023-01-31T18:00:41.303Z,59.90
2023-01-31T18:03:07.840Z,59.73
2023-01-31T18:05:39.283Z,60.12
2023-01-31T18:08:06.056Z,59.94
2023-01-31T18:10:32.661Z,59.88
2023-01-31T18:12:59.188Z,59.93
2023-01-31T18:15:25.882Z,60.04
2023-01-31T18:17:52.432Z,59.91
2023-01-31T18:20:19.365Z,59.79
2023-01-31T18:22:46.764Z,60.08
2023-01-31T18:25:13.436Z,60.26
2023-01-31T18:27:40.107Z,60.10
2023-01-31T18:30:07.553Z,60.19
2023-01-31T18:32:34.282Z,60.49
2023-01-31T18:35:00.909Z,60.57
2023-01-31T18:37:27.459Z,60.79
2023-01-31T18:39:54.307Z,60.65
2023-01-31T18:42:21.672Z,60.66
2023-01-31T18:44:48.169Z,60.72
2023-01-31T18:47:15.911Z,60.65
2023-01-31T18:49:44.579Z,60.47
2023-01-31T18:52:11.227Z,60.65
2023-01-31T18:54:38.004Z,60.45
2023-01-31T18:57:05.489Z,60.33
2023-01-31T18:59:34.081Z,60.43
2023-01-31T19:02:00.872Z,60.48
2023-01-31T19:04:27.599Z,60.30
2023-01-31T19:06:54.205Z,60.29
2023-01-31T19:09:22.251Z,60.35
2023-01-31T19:11:48.808Z,60.15
2023-01-31T19:14:15.951Z,60.28
2023-01-31T19:16:43.499Z,60.13
2023-01-31T19:19:10.493Z,60.00
2023-01-31T19:21:38.220Z,59.96
2023-01-31T19:24:09.997Z,60.10
2023-01-31T19:26:36.774Z,60.19
2023-01-31T19:29:06.159Z,60.13
2023-01-31T19:31:34.939Z,60.10
2023-01-31T19:34:04.581Z,59.99
2023-01-31T19:36:35.599Z,60.02
2023-01-31T19:39:04.846Z,59.52
2023-01-31T19:41:31.483Z,59.70
2023-01-31T19:43:59.544Z,59.78
2023-01-31T19:46:28.973Z,59.41
2023-01-31T19:48:56.611Z,59.44
2023-01-31T19:51:25.186Z,59.53
2023-01-31T19:53:55.423Z,59.37
2023-01-31T19:56:24.100Z,59.50
2023-01-31T19:58:50.897Z,59.38
2023-01-31T20:01:17.469Z,59.51
2023-01-31T20:03:45.320Z,59.58
2023-01-31T20:06:14.928Z,59.31
2023-01-31T20:08:41.789Z,59.26
2023-01-31T20:11:09.262Z,59.75
2023-01-31T20:13:36.351Z,59.78
2023-01-31T20:16:06.696Z,59.96
2023-01-31T20:18:34.385Z,60.07
2023-01-31T20:21:01.146Z,59.87
2023-01-31T20:23:29.076Z,60.14
2023-01-31T20:25:56.668Z,60.00
2023-01-31T20:28:24.497Z,60.15
2023-01-31T20:30:51.537Z,60.17
2023-01-31T20:33:18.542Z,60.26
2023-01-31T20:35:45.762Z,60.42
2023-01-31T20:38:15.470Z,60.46
2023-01-31T20:40:42.057Z,60.34
2023-01-31T20:43:08.632Z,60.38
2023-01-31T20:45:35.379Z,60.25
2023-01-31T20:48:01.942Z,60.41
2023-01-31T20:50:28.594Z,60.34
2023-01-31T20:52:56.397Z,60.76
2023-01-31T20:55:24.225Z,60.57
2023-01-31T20:57:51.644Z,60.81
2023-01-31T21:00:20.033Z,60.88
2023-01-31T21:02:47.396Z,60.97
2023-01-31T21:05:14.111Z,61.05
2023-01-31T21:07:40.751Z,61.21
2023-01-31T21:10:08.646Z,61.31
2023-01-31T21:12:35.153Z,61.40
2023-01-31T21:15:02.373Z,61.27
2023-01-31T21:17:39.575Z,61.29
2023-01-31T21:20:07.903Z,61.48
2023-01-31T21:22:34.969Z,61.31
2023-01-31T21:25:01.930Z,61.05
2023-01-31T21:27:28.548Z,61.06
2023-01-31T21:29:55.214Z,60.96
2023-01-31T21:32:22.156Z,61.03
2023-01-31T21:34:48.705Z,60.74
2023-01-31T21:37:15.264Z,60.89
2023-01-31T21:39:41.790Z,60.76
2023-01-31T21:42:16.249Z,60.74
2023-01-31T21:44:43.543Z,61.01
2023-01-31T21:47:10.841Z,60.33
2023-01-31T21:49:37.409Z,60.87
2023-01-31T21:52:04.767Z,60.52
2023-01-31T21:54:31.435Z,60.60
2023-01-31T21:56:58.466Z,60.70
2023-01-31T21:59:25.124Z,60.43
2023-01-31T22:01:52.141Z,60.49
2023-01-31T22:04:20.941Z,60.42
2023-01-31T22:06:50.314Z,60.44
2023-01-31T22:09:17.516Z,60.29
2023-01-31T22:11:45.037Z,60.17
2023-01-31T22:14:13.618Z,60.12
2023-01-31T22:16:40.679Z,60.39
2023-01-31T22:19:08.027Z,60.17
2023-01-31T22:21:36.710Z,60.26
2023-01-31T22:24:06.081Z,60.11
2023-01-31T22:26:35.872Z,59.94
2023-01-31T22:29:05.432Z,60.00
2023-01-31T22:31:32.962Z,59.80
2023-01-31T22:34:00.686Z,59.55
2023-01-31T22:36:27.775Z,59.59
2023-01-31T22:38:54.694Z,59.67
2023-01-31T22:41:21.719Z,59.47
2023-01-31T22:43:50.628Z,59.45
2023-01-31T22:46:20.549Z,59.16
2023-01-31T22:48:50.460Z,59.41
2023-01-31T22:51:22.785Z,59.16
2023-01-31T22:53:50.224Z,58.93
2023-01-31T22:56:19.936Z,59.04
2023-01-31T22:58:46.802Z,58.80
2023-01-31T23:01:21.714Z,58.54
2023-01-31T23:03:48.625Z,58.62
2023-01-31T23:06:16.655Z,58.57
2023-01-31T23:08:43.417Z,58.57
2023-01-31T23:11:12.918Z,58.41
2023-01-31T23:13:40.365Z,58.29
2023-01-31T23:16:08.675Z,58.34
2023-01-31T23:18:35.836Z,58.29
2023-01-31T23:21:16.441Z,58.29
2023-01-31T23:23:43.653Z,58.11
2023-01-31T23:26:10.579Z,58.00
2023-01-31T23:28:37.081Z,58.19
2023-01-31T23:31:04.107Z,58.10
2023-01-31T23:33:30.631Z,57.99
2023-01-31T23:35:57.256Z,57.99
2023-01-31T23:38:24.396Z,57.93
2023-01-31T23:40:53.904Z,57.83
2023-01-31T23:43:21.875Z,58.02
2023-01-31T23:45:49.171Z,57.76
2023-01-31T23:48:16.011Z,57.97
2023-01-31T23:50:42.564Z,58.02
2023-01-31T23:53:09.219Z,58.00
2023-01-31T23:55:35.858Z,58.44
2023-01-31T23:58:02.575Z,58.19
